Time;durP1;ratioP1;P1;durP2;ratioP2;P2;SDS_P1;SDS_P2;PMS_P1;PMS_P2;Temp;Humidity;BMP_temperature;BMP_pressure;BME280_temperature;BME280_humidity;BME280_pressure;Samples;Min_cycle;Max_cycle;Signal;HPM_P1;HPM_P2
2023/06/20 00:00:10;;;;;;;4.55;3.63;;;21.20;75.30;;;20.59;93.86;95681.69;4956053;28;20593;-70
2023/06/20 00:02:36;;;;;;;5.43;3.50;;;21.20;75.40;;;20.56;94.62;95677.66;4974962;28;20470;-70
2023/06/20 00:05:03;;;;;;;6.78;3.42;;;21.20;75.30;;;20.48;94.54;95678.97;4972243;28;20418;-69
2023/06/20 00:07:29;;;;;;;4.47;3.45;;;21.10;75.20;;;20.45;95.04;95681.38;4990630;28;20037;-69
2023/06/20 00:09:55;;;;;;;5.18;3.95;;;21.10;75.40;;;20.43;95.60;95688.84;4974302;28;20043;-70
2023/06/20 00:12:20;;;;;;;6.22;3.58;;;21.10;75.60;;;20.38;95.88;95702.97;4972953;28;20069;-69
2023/06/20 00:14:46;;;;;;;5.13;3.88;;;21.00;75.30;;;20.33;95.80;95702.91;4989776;28;20042;-70
2023/06/20 00:17:13;;;;;;;8.77;4.00;;;21.00;75.60;;;20.28;96.24;95707.44;4972670;28;20038;-69
2023/06/20 00:19:42;;;;;;;4.32;3.67;;;21.00;75.60;;;20.27;96.57;95700.47;4990477;28;20036;-69
2023/06/20 00:22:07;;;;;;;6.47;3.80;;;20.90;76.10;;;20.22;97.69;95700.47;4973121;28;20414;-69
2023/06/20 00:24:33;;;;;;;5.13;3.95;;;20.90;76.30;;;20.20;98.61;95700.72;4990328;28;20038;-69
2023/06/20 00:27:00;;;;;;;4.55;3.95;;;20.80;76.50;;;20.14;99.19;95710.59;4989674;28;20526;-70
2023/06/20 00:29:26;;;;;;;5.32;4.30;;;20.80;76.80;;;20.09;99.86;95710.53;4982026;28;20039;-69
2023/06/20 00:31:52;;;;;;;4.75;4.32;;;20.80;76.90;;;20.04;100.00;95713.19;4987737;28;20399;-70
2023/06/20 00:34:18;;;;;;;6.45;4.20;;;20.80;77.10;;;20.02;100.00;95715.31;4941123;28;20117;-68
2023/06/20 00:36:43;;;;;;;4.80;4.30;;;20.70;77.10;;;19.98;100.00;95722.22;4986330;28;20514;-67
2023/06/20 00:39:10;;;;;;;5.80;4.38;;;20.60;77.10;;;19.93;100.00;95724.06;4972467;28;20406;-66
2023/06/20 00:41:36;;;;;;;6.70;4.25;;;20.60;77.50;;;19.84;100.00;95702.38;4974053;28;20061;-67
2023/06/20 00:44:03;;;;;;;6.72;3.65;;;20.60;77.60;;;19.74;100.00;95700.44;4989545;28;20081;-67
2023/06/20 00:46:31;;;;;;;5.30;4.15;;;20.50;77.70;;;19.70;100.00;95718.03;4984336;28;20503;-66
2023/06/20 00:48:56;;;;;;;4.82;4.10;;;20.40;77.80;;;19.70;100.00;95707.34;4973171;28;20446;-67
2023/06/20 00:51:22;;;;;;;6.35;3.70;;;20.50;77.70;;;19.66;100.00;95711.56;4989683;28;20043;-66
2023/06/20 00:53:48;;;;;;;7.30;4.40;;;20.40;77.90;;;19.65;100.00;95706.50;4973559;28;20085;-67
2023/06/20 00:56:15;;;;;;;5.20;4.05;;;20.30;77.80;;;19.64;100.00;95696.88;4970730;28;20443;-66
2023/06/20 00:58:41;;;;;;;4.82;3.85;;;20.40;77.30;;;19.57;100.00;95689.91;4989320;28;20030;-67
2023/06/20 01:01:07;;;;;;;5.45;4.32;;;20.30;76.80;;;19.53;100.00;95691.47;4956080;28;20041;-69
2023/06/20 01:03:35;;;;;;;4.88;4.40;;;20.20;76.90;;;19.48;100.00;95698.59;4969988;28;20031;-67
2023/06/20 01:06:32;;;;;;;5.53;4.50;;;20.20;77.20;;;19.48;100.00;95698.59;4956845;28;20030;-69
2023/06/20 01:09:28;;;;;;;4.82;4.18;;;20.10;77.50;;;19.44;100.00;95708.16;4987921;28;20030;-67
2023/06/20 01:12:08;;;;;;;5.88;4.70;;;20.10;77.60;;;19.33;100.00;95712.59;4987709;28;20030;-67
2023/06/20 01:14:40;;;;;;;5.30;4.65;;;20.10;78.00;;;19.26;100.00;95718.16;4989243;28;20054;-68
2023/06/20 01:17:22;;;;;;;11.75;4.82;;;20.00;78.20;;;19.23;100.00;95712.50;4991011;28;20501;-67
2023/06/20 01:20:09;;;;;;;5.55;4.38;;;19.90;78.40;;;19.23;100.00;95712.50;4992633;28;20033;-68
2023/06/20 01:23:02;;;;;;;6.18;4.35;;;19.90;77.90;;;19.19;100.00;95701.53;4989415;28;20041;-67
2023/06/20 01:25:59;;;;;;;6.28;4.53;;;19.90;77.90;;;19.11;100.00;95703.88;4972653;28;20642;-67
2023/06/20 01:28:32;;;;;;;5.13;4.10;;;19.80;77.60;;;19.06;100.00;95706.50;4990568;28;20458;-68
2023/06/20 01:31:09;;;;;;;5.95;4.15;;;19.70;77.70;;;19.03;100.00;95699.00;4970828;28;20034;-68
2023/06/20 01:34:12;;;;;;;7.00;4.70;;;19.80;77.90;;;19.05;100.00;95700.34;4961469;28;20528;-68
2023/06/20 01:36:42;;;;;;;6.13;4.50;;;19.80;78.10;;;19.03;100.00;95707.00;4959151;28;20101;-68
2023/06/20 01:39:12;;;;;;;6.05;4.63;;;19.80;77.90;;;19.04;100.00;95714.75;4956709;28;20030;-68
2023/06/20 01:41:39;;;;;;;7.93;4.90;;;19.80;77.80;;;19.01;100.00;95714.41;4957289;28;20041;-68
2023/06/20 01:44:06;;;;;;;7.25;4.55;;;19.70;78.20;;;18.98;100.00;95715.72;4956284;28;20035;-68
2023/06/20 01:46:32;;;;;;;8.27;4.70;;;19.70;78.20;;;18.97;100.00;95717.59;4949270;28;20112;-68
2023/06/20 01:48:58;;;;;;;6.18;4.75;;;19.70;78.30;;;19.01;100.00;95709.09;4970730;28;20501;-67
2023/06/20 01:51:24;;;;;;;5.07;4.30;;;19.80;78.40;;;18.96;100.00;95712.50;4956103;28;20043;-68
2023/06/20 01:53:49;;;;;;;6.82;5.05;;;19.80;78.50;;;18.98;100.00;95721.84;4972669;28;20036;-68
2023/06/20 01:56:15;;;;;;;6.72;4.75;;;19.80;78.80;;;18.94;100.00;95728.75;4939422;28;20101;-68
2023/06/20 01:58:41;;;;;;;6.00;5.03;;;19.80;78.80;;;18.95;100.00;95729.56;4953387;28;20041;-67
2023/06/20 02:01:07;;;;;;;5.85;5.00;;;19.70;79.00;;;18.95;100.00;95738.34;4971911;28;20043;-68
2023/06/20 02:03:32;;;;;;;5.47;4.47;;;19.80;79.10;;;18.94;100.00;95742.06;4953507;28;20573;-66
2023/06/20 02:05:59;;;;;;;5.65;4.30;;;19.70;79.10;;;18.95;100.00;95737.53;4970682;28;20030;-68
2023/06/20 02:08:25;;;;;;;6.55;4.47;;;19.80;79.10;;;18.97;100.00;95746.91;4972777;28;20510;-71
2023/06/20 02:10:51;;;;;;;8.73;4.85;;;19.80;79.20;;;18.95;100.00;95738.34;4969471;28;20123;-67
2023/06/20 02:13:19;;;;;;;5.28;4.78;;;19.80;79.50;;;18.98;100.00;95747.72;4955332;28;20022;-68
2023/06/20 02:15:45;;;;;;;8.82;5.28;;;19.80;79.50;;;18.99;100.00;95757.31;4988824;28;20022;-68
2023/06/20 02:18:11;;;;;;;6.25;4.70;;;19.80;79.40;;;18.98;100.00;95745.84;4970290;28;20384;-67
2023/06/20 02:20:37;;;;;;;5.28;4.55;;;19.80;79.60;;;18.98;100.00;95753.84;4972518;28;20046;-68
2023/06/20 02:23:03;;;;;;;7.00;5.00;;;19.80;79.60;;;18.98;100.00;95759.16;4972436;28;20034;-69
2023/06/20 02:25:32;;;;;;;6.50;4.90;;;19.70;79.60;;;18.96;100.00;95769.28;4956168;28;20048;-68
2023/06/20 02:27:57;;;;;;;5.03;4.50;;;19.80;79.70;;;18.92;100.00;95786.84;4953411;28;20121;-67
2023/06/20 02:30:25;;;;;;;8.18;4.90;;;19.70;80.00;;;18.89;100.00;95813.97;4972470;28;20105;-68
2023/06/20 02:32:52;;;;;;;5.25;4.75;;;19.60;79.90;;;18.84;100.00;95848.56;4985239;28;20105;-68
2023/06/20 02:35:17;;;;;;;6.68;5.03;;;19.60;79.80;;;18.77;100.00;95858.59;4939835;28;20027;-68
2023/06/20 02:37:43;;;;;;;7.85;5.35;;;19.50;80.10;;;18.71;100.00;95822.28;4969497;28;20027;-69
2023/06/20 02:40:10;;;;;;;5.43;4.82;;;19.40;80.30;;;18.67;100.00;95858.47;4971846;28;20023;-68
2023/06/20 02:42:36;;;;;;;5.82;4.90;;;19.40;80.20;;;18.65;100.00;95833.91;4956413;28;20117;-67
2023/06/20 02:45:01;;;;;;;7.32;4.82;;;19.40;80.20;;;18.66;100.00;95848.84;4969885;28;20615;-67
2023/06/20 02:48:00;;;;;;;6.05;4.70;;;19.50;80.10;;;18.61;100.00;95856.75;4971978;28;20140;-69
2023/06/20 02:50:46;;;;;;;5.53;4.40;;;19.30;80.40;;;18.58;100.00;95857.25;4967895;28;20062;-70
2023/06/20 02:53:53;;;;;;;5.28;4.32;;;19.30;80.30;;;18.58;100.00;95854.59;4961291;28;20498;-70
2023/06/20 02:56:19;;;;;;;5.45;4.80;;;19.40;80.20;;;18.56;100.00;95856.69;5007771;28;20056;-68
2023/06/20 02:58:50;;;;;;;5.07;4.47;;;19.40;80.00;;;18.54;100.00;95862.22;4994391;28;20030;-67
2023/06/20 03:01:26;;;;;;;5.53;4.82;;;19.30;80.10;;;18.51;100.00;95859.25;4961759;28;20030;-66
2023/06/20 03:03:54;;;;;;;5.50;5.00;;;19.20;80.40;;;18.50;100.00;95850.47;4994868;28;20095;-67
2023/06/20 03:06:27;;;;;;;7.28;4.63;;;19.30;80.30;;;18.51;100.00;95859.25;4979777;28;20406;-67
2023/06/20 03:08:53;;;;;;;5.82;4.65;;;19.30;80.20;;;18.48;100.00;95865.06;4995477;28;20022;-67
2023/06/20 03:11:19;;;;;;;5.30;4.80;;;19.20;80.30;;;18.45;100.00;95866.38;4994565;28;20036;-67
2023/06/20 03:13:45;;;;;;;6.03;5.10;;;19.20;80.30;;;18.42;100.00;95871.38;4995597;28;20391;-67
2023/06/20 03:16:12;;;;;;;5.80;5.20;;;19.10;80.20;;;18.40;100.00;95873.47;5009573;28;20429;-67
2023/06/20 03:18:38;;;;;;;6.60;5.53;;;19.10;80.20;;;18.35;100.00;95880.34;5011270;28;20120;-67
2023/06/20 03:21:04;;;;;;;5.68;4.97;;;19.20;80.40;;;18.34;100.00;95876.06;4995115;28;20026;-67
2023/06/20 03:23:30;;;;;;;7.35;5.40;;;19.10;80.30;;;18.33;100.00;95885.13;4994762;28;20049;-68
2023/06/20 03:25:55;;;;;;;12.05;8.90;;;19.10;80.20;;;18.33;100.00;95884.28;4992043;28;20088;-67
2023/06/20 03:28:22;;;;;;;6.93;6.22;;;19.10;80.40;;;18.33;100.00;95882.44;4993042;28;20382;-66
2023/06/20 03:30:48;;;;;;;6.38;5.45;;;19.10;80.20;;;18.38;100.00;95892.38;4991384;28;20018;-68
2023/06/20 03:33:13;;;;;;;7.10;6.40;;;19.20;79.80;;;18.39;100.00;95879.88;5005239;28;20029;-68
2023/06/20 03:35:40;;;;;;;5.90;5.25;;;19.10;79.90;;;18.34;100.00;95886.72;4995798;28;20096;-67
2023/06/20 03:38:05;;;;;;;9.52;5.70;;;19.10;79.90;;;18.34;100.00;95881.41;4993045;28;20084;-67
2023/06/20 03:40:31;;;;;;;7.20;6.50;;;19.10;79.70;;;18.33;100.00;95879.78;4980804;28;20030;-67
2023/06/20 03:42:57;;;;;;;7.07;5.55;;;19.10;79.70;;;18.32;100.00;95883.47;5011120;28;20120;-67
2023/06/20 03:45:23;;;;;;;5.88;5.28;;;19.10;79.80;;;18.31;100.00;95891.69;4977588;28;20029;-67
2023/06/20 03:47:48;;;;;;;6.13;5.03;;;19.10;79.50;;;18.30;100.00;95890.91;4994246;28;20441;-71
2023/06/20 03:50:14;;;;;;;7.85;5.32;;;19.10;79.50;;;18.26;100.00;95892.44;5008564;28;20076;-73
2023/06/20 03:52:40;;;;;;;7.80;5.45;;;19.10;79.50;;;18.31;100.00;95897.84;5004969;28;20105;-71
2023/06/20 03:55:07;;;;;;;7.95;5.00;;;19.10;79.10;;;18.34;100.00;95899.22;4991413;28;20038;-67
2023/06/20 03:57:32;;;;;;;7.13;5.43;;;19.20;78.90;;;18.35;100.00;95906.19;5010332;28;20069;-67
2023/06/20 03:59:58;;;;;;;5.30;4.80;;;19.20;78.90;;;18.35;100.00;95917.63;5011472;28;20516;-67
2023/06/20 04:02:24;;;;;;;7.18;5.22;;;19.10;78.70;;;18.34;100.00;95908.03;5011447;28;20037;-67
2023/06/20 04:04:50;;;;;;;7.15;5.65;;;19.10;78.80;;;18.34;100.00;95913.34;5009897;28;20034;-67
2023/06/20 04:07:20;;;;;;;6.80;5.70;;;19.20;78.60;;;18.34;100.00;95918.69;5011101;28;20026;-67
2023/06/20 04:09:46;;;;;;;6.00;5.43;;;19.20;78.70;;;18.33;100.00;95917.06;4994563;28;20508;-67
2023/06/20 04:12:12;;;;;;;6.80;4.95;;;19.20;78.50;;;18.33;100.00;95924.22;4993163;28;20554;-67
2023/06/20 04:14:38;;;;;;;5.95;5.15;;;19.10;78.40;;;18.36;100.00;95921.91;4973927;28;20061;-66
2023/06/20 04:17:04;;;;;;;6.45;5.57;;;19.30;78.20;;;18.34;100.00;95916.03;5008135;28;20033;-66
2023/06/20 04:19:30;;;;;;;5.72;5.03;;;19.30;78.10;;;18.40;100.00;95929.41;5010280;28;20038;-67
2023/06/20 04:21:55;;;;;;;6.63;5.75;;;19.30;78.10;;;18.43;100.00;95926.25;5007174;28;20079;-69
2023/06/20 04:24:21;;;;;;;6.32;5.40;;;19.40;77.80;;;18.44;100.00;95927.88;5009700;28;20069;-66
2023/06/20 04:26:47;;;;;;;5.82;5.22;;;19.40;78.00;;;18.47;100.00;95922.06;5010986;28;20453;-67
2023/06/20 04:29:13;;;;;;;8.70;5.60;;;19.40;77.50;;;18.44;100.00;95927.88;5007311;28;20034;-67
2023/06/20 04:31:38;;;;;;;6.65;5.60;;;19.30;77.80;;;18.46;100.00;95937.22;4988280;28;20402;-67
2023/06/20 04:34:04;;;;;;;6.57;5.60;;;19.50;77.80;;;18.49;100.00;95930.59;5009639;28;20390;-67
2023/06/20 04:36:33;;;;;;;6.00;5.40;;;19.50;77.40;;;18.53;100.00;95932.53;4989809;28;20498;-67
2023/06/20 04:38:59;;;;;;;5.75;5.15;;;19.50;77.30;;;18.55;100.00;95933.09;5006406;28;20455;-67
2023/06/20 04:41:25;;;;;;;5.70;5.10;;;19.60;77.50;;;18.59;100.00;95928.94;4975841;28;20030;-66
2023/06/20 04:43:51;;;;;;;6.85;5.25;;;19.60;77.00;;;18.63;100.00;95934.59;5009776;28;20113;-67
2023/06/20 04:46:17;;;;;;;5.95;5.35;;;19.60;77.10;;;18.67;100.00;95930.38;4992940;28;20080;-67
2023/06/20 04:48:44;;;;;;;6.72;5.28;;;19.70;77.10;;;18.71;100.00;95934.19;5006025;28;20045;-67
2023/06/20 04:51:10;;;;;;;6.00;5.38;;;19.80;76.60;;;18.73;100.00;95932.06;5008921;28;20506;-67
2023/06/20 04:53:36;;;;;;;6.40;5.20;;;19.80;76.80;;;18.79;100.00;95930.31;4992599;28;20046;-67
2023/06/20 04:56:02;;;;;;;6.53;4.72;;;19.90;76.50;;;18.86;100.00;95931.75;5009412;28;20070;-67
2023/06/20 04:58:28;;;;;;;6.88;5.55;;;20.00;76.40;;;18.90;100.00;95932.88;4993266;28;20038;-67
2023/06/20 05:00:57;;;;;;;9.00;5.70;;;20.10;76.20;;;18.97;100.00;95933.50;4992588;28;20030;-67
2023/06/20 05:03:23;;;;;;;7.57;5.35;;;20.10;76.10;;;19.03;100.00;95928.25;5007667;28;20085;-66
2023/06/20 05:05:49;;;;;;;6.70;5.35;;;20.10;76.10;;;19.06;100.00;95933.88;4989889;28;20035;-67
2023/06/20 05:08:15;;;;;;;6.75;5.60;;;20.20;76.10;;;19.16;100.00;95951.88;5008652;28;20065;-67
2023/06/20 05:10:40;;;;;;;6.35;5.60;;;20.30;75.70;;;19.17;100.00;95948.16;5003131;28;20034;-68
2023/06/20 05:13:06;;;;;;;6.00;5.40;;;20.20;75.70;;;19.21;100.00;95943.94;5007445;28;20521;-66
2023/06/20 05:15:32;;;;;;;10.40;5.47;;;20.30;75.60;;;19.23;100.00;95953.28;4991333;28;20030;-67
2023/06/20 05:17:57;;;;;;;10.18;6.10;;;20.40;75.50;;;19.28;100.00;95952.59;4989634;28;20034;-67
2023/06/20 05:20:23;;;;;;;7.10;5.38;;;20.40;75.20;;;19.34;100.00;95964.91;5010318;28;20026;-66
2023/06/20 05:22:49;;;;;;;7.90;5.13;;;20.60;74.80;;;19.38;100.00;95958.03;4991190;28;20037;-67
2023/06/20 05:25:15;;;;;;;7.13;5.43;;;20.60;74.20;;;19.44;100.00;95965.03;4991226;28;20030;-67
2023/06/20 05:27:40;;;;;;;6.72;4.95;;;20.60;74.10;;;19.50;100.00;95955.25;5010407;28;20105;-67
2023/06/20 05:30:08;;;;;;;6.43;5.30;;;20.70;74.10;;;19.53;100.00;95960.94;5007011;28;20074;-67
2023/06/20 05:32:34;;;;;;;5.65;5.05;;;20.70;73.50;;;19.60;100.00;95957.25;5010301;28;20034;-67
2023/06/20 05:35:00;;;;;;;8.98;5.22;;;20.80;73.60;;;19.70;100.00;95944.06;5005347;28;20073;-67
2023/06/20 05:37:28;;;;;;;7.47;4.78;;;21.00;73.20;;;19.80;100.00;95946.81;4960519;28;20517;-67
2023/06/20 05:39:53;;;;;;;6.95;4.50;;;21.10;72.60;;;19.92;100.00;95958.16;5008946;28;20489;-67
2023/06/20 05:42:19;;;;;;;5.97;4.63;;;21.30;72.50;;;20.06;100.00;95962.03;5008441;28;20058;-66
2023/06/20 05:44:45;;;;;;;7.03;4.60;;;21.50;71.50;;;20.22;100.00;95964.88;5009509;28;20041;-67
2023/06/20 05:47:17;;;;;;;6.13;4.18;;;21.80;71.00;;;20.38;99.79;95958.63;5006986;28;20030;-67
2023/06/20 05:49:48;;;;;;;5.00;4.32;;;21.90;70.30;;;20.51;98.68;95960.88;5008702;28;20096;-67
2023/06/20 05:52:17;;;;;;;4.45;4.03;;;22.00;69.60;;;20.65;98.07;95978.09;4989717;28;20043;-67
2023/06/20 05:54:45;;;;;;;6.18;4.75;;;22.20;69.30;;;20.78;97.35;95974.19;5007753;28;20034;-67
2023/06/20 05:57:11;;;;;;;4.80;4.28;;;22.40;69.20;;;20.92;97.24;95969.22;4990790;28;20038;-67
2023/06/20 05:59:36;;;;;;;5.03;4.20;;;22.50;68.90;;;20.99;95.57;95972.47;4990272;28;20100;-67
2023/06/20 06:02:05;;;;;;;6.18;4.40;;;22.50;68.20;;;21.10;95.78;95971.47;4989568;28;20492;-68
2023/06/20 06:04:31;;;;;;;6.63;4.13;;;22.70;68.30;;;21.28;95.22;95970.28;4992478;28;20018;-66
2023/06/20 06:06:57;;;;;;;8.35;4.47;;;23.00;67.10;;;21.44;94.54;95965.78;5004975;28;20453;-66
2023/06/20 06:09:23;;;;;;;4.40;3.90;;;23.20;66.50;;;21.64;93.09;95973.91;4991914;28;20077;-68
2023/06/20 06:11:48;;;;;;;5.53;4.20;;;23.40;65.50;;;21.83;92.31;95980.41;5005502;28;20093;-67
2023/06/20 06:14:14;;;;;;;6.15;3.80;;;23.60;65.30;;;22.01;91.13;95977.25;5007132;28;20042;-66
2023/06/20 06:16:40;;;;;;;5.32;3.85;;;23.70;64.80;;;22.18;89.58;95973.56;5007238;28;20033;-67
2023/06/20 06:19:06;;;;;;;8.10;3.75;;;23.90;63.90;;;22.31;89.00;95979.22;5009700;28;20104;-67
2023/06/20 06:21:31;;;;;;;7.85;3.40;;;24.10;64.20;;;22.42;87.95;95976.56;4990850;28;20034;-68
2023/06/20 06:24:00;;;;;;;4.63;3.58;;;24.10;63.00;;;22.49;86.59;95971.75;5005189;28;20446;-67
2023/06/20 06:26:26;;;;;;;5.03;3.72;;;24.10;62.80;;;22.56;85.02;95967.72;4991327;28;20034;-67
2023/06/20 06:28:53;;;;;;;5.88;3.08;;;24.10;62.60;;;22.62;84.63;95966.63;5005245;28;20473;-67
2023/06/20 06:31:25;;;;;;;4.55;2.90;;;24.20;62.30;;;22.69;83.19;95962.91;5009913;28;20037;-67
2023/06/20 06:33:51;;;;;;;4.70;3.50;;;24.20;62.40;;;22.73;83.68;95978.19;4972021;28;20023;-67
2023/06/20 06:36:17;;;;;;;5.03;3.15;;;24.30;62.50;;;22.74;82.51;95982.47;4993108;28;20037;-67
2023/06/20 06:38:48;;;;;;;3.70;2.90;;;24.20;62.00;;;22.77;82.52;95978.44;5011524;28;20617;-67
2023/06/20 06:41:16;;;;;;;3.65;2.70;;;24.20;61.40;;;22.76;81.53;95974.97;4994207;28;20041;-68
2023/06/20 06:43:41;;;;;;;5.72;3.15;;;24.10;61.40;;;22.82;81.47;95970.41;4995722;28;20513;-67
2023/06/20 06:46:10;;;;;;;6.72;3.00;;;24.40;61.30;;;22.87;80.97;95965.06;4994041;28;20030;-67
2023/06/20 06:48:36;;;;;;;3.38;2.70;;;24.50;61.80;;;22.98;80.76;95963.97;4959462;28;20077;-67
2023/06/20 06:51:02;;;;;;;4.07;3.25;;;24.60;61.20;;;23.04;80.06;95960.22;4992296;28;20038;-68
2023/06/20 06:53:28;;;;;;;4.75;3.22;;;24.70;60.80;;;23.08;80.14;95968.50;4963118;28;20030;-66
2023/06/20 06:55:54;;;;;;;3.70;2.80;;;24.70;60.40;;;23.10;79.18;95967.19;4992325;28;20034;-68
2023/06/20 06:58:20;;;;;;;6.00;3.22;;;24.70;60.30;;;23.12;78.47;95965.03;5008881;28;20526;-67
2023/06/20 07:00:45;;;;;;;4.40;2.92;;;24.60;60.60;;;23.13;79.29;95965.84;5010784;28;20034;-68
2023/06/20 07:03:11;;;;;;;3.50;2.92;;;24.50;60.90;;;23.10;79.01;95972.56;4976995;28;20058;-67
2023/06/20 07:05:37;;;;;;;4.82;3.10;;;24.40;61.80;;;23.04;79.26;95962.88;4995216;28;20045;-66
2023/06/20 07:08:03;;;;;;;4.60;3.50;;;24.20;62.60;;;22.94;79.89;95967.47;4993999;28;20038;-67
2023/06/20 07:10:29;;;;;;;3.47;3.17;;;23.90;63.50;;;22.82;80.05;95963.19;4978634;28;20075;-67
2023/06/20 07:12:55;;;;;;;6.07;3.47;;;23.80;64.30;;;22.74;82.09;95954.84;5011095;28;20034;-67
2023/06/20 07:15:20;;;;;;;4.25;3.20;;;23.80;65.20;;;22.67;82.69;95948.97;4993821;28;20034;-67
2023/06/20 07:17:46;;;;;;;7.72;3.65;;;23.70;65.50;;;22.62;83.48;95937.16;5011583;28;20092;-67
2023/06/20 07:20:12;;;;;;;10.88;3.92;;;23.70;66.30;;;22.57;85.21;95925.63;5011111;28;20038;-67
2023/06/20 07:22:38;;;;;;;7.47;3.40;;;23.70;67.00;;;22.53;86.50;95930.72;4976926;28;20043;-67
2023/06/20 07:25:05;;;;;;;4.63;3.75;;;23.80;67.50;;;22.49;87.84;95935.03;4991414;28;20035;-67
2023/06/20 07:27:30;;;;;;;5.07;3.78;;;23.60;68.20;;;22.44;89.23;95935.03;4978749;28;20036;-67
2023/06/20 07:29:56;;;;;;;5.18;3.22;;;23.60;68.70;;;22.37;88.67;95921.06;4991767;28;20031;-68
2023/06/20 07:32:24;;;;;;;3.70;3.25;;;23.60;67.80;;;22.28;89.70;95909.28;5009883;28;20080;-67
2023/06/20 07:34:50;;;;;;;4.63;3.30;;;23.50;68.10;;;22.26;89.91;95908.75;5009025;28;20156;-67
2023/06/20 07:37:15;;;;;;;6.72;3.67;;;23.60;68.00;;;22.31;91.09;95916.78;4993059;28;20042;-67
2023/06/20 07:39:42;;;;;;;4.65;3.78;;;23.70;68.90;;;22.36;90.94;95908.75;5011036;28;20026;-67
2023/06/20 07:42:11;;;;;;;5.22;3.83;;;23.90;68.50;;;22.41;91.31;95911.44;4991131;28;20445;-68
2023/06/20 07:44:37;;;;;;;5.57;3.40;;;23.80;67.50;;;22.43;91.25;95909.28;4994205;28;20033;-67
2023/06/20 07:47:02;;;;;;;7.57;4.05;;;23.90;67.80;;;22.53;91.53;95921.88;5007482;28;20035;-67
2023/06/20 07:49:28;;;;;;;4.35;3.28;;;24.10;67.50;;;22.59;91.48;95918.91;5008775;28;20030;-67
2023/06/20 07:51:54;;;;;;;6.35;3.63;;;24.20;67.70;;;22.68;90.67;95915.72;5007708;28;20038;-68
2023/06/20 07:54:20;;;;;;;6.85;3.90;;;24.30;67.10;;;22.80;91.64;95908.19;5009008;28;20064;-68
2023/06/20 07:56:45;;;;;;;4.28;3.20;;;24.50;67.00;;;22.92;91.14;95900.69;5009984;28;20038;-68
2023/06/20 07:59:11;;;;;;;4.88;3.38;;;24.70;65.80;;;23.05;89.59;95897.41;4977922;28;20431;-67
2023/06/20 08:01:37;;;;;;;6.57;3.72;;;24.90;64.40;;;23.19;87.83;95903.03;5010232;28;20546;-68
2023/06/20 08:04:03;;;;;;;6.90;3.25;;;25.20;62.90;;;23.38;87.31;95906.72;5007440;28;20073;-69
2023/06/20 08:06:31;;;;;;;5.45;3.40;;;25.50;62.70;;;23.55;87.03;95914.44;5008667;28;20454;-67
2023/06/20 08:08:56;;;;;;;6.00;3.17;;;25.60;62.90;;;23.67;85.47;95917.63;5006613;28;20041;-67
2023/06/20 08:11:23;;;;;;;7.13;3.22;;;25.80;61.70;;;23.85;84.57;95934.19;5008941;28;20034;-67
2023/06/20 08:13:49;;;;;;;4.28;3.20;;;26.00;61.20;;;24.04;85.01;95927.09;5010570;28;20018;-68
2023/06/20 08:16:14;;;;;;;7.60;3.50;;;26.40;61.30;;;24.43;84.77;95927.91;5007850;28;20037;-68
2023/06/20 08:18:40;;;;;;;4.40;3.13;;;27.40;59.30;;;24.84;83.54;95922.19;4990773;28;20751;-67
2023/06/20 08:21:06;;;;;;;8.27;2.90;;;28.00;57.20;;;25.31;80.18;95912.59;5007375;28;20502;-67
2023/06/20 08:23:32;;;;;;;4.85;2.90;;;28.60;52.70;;;25.73;75.95;95908.34;4992880;28;20033;-68
2023/06/20 08:25:57;;;;;;;4.43;2.83;;;28.80;51.10;;;26.22;74.46;95910.59;4974334;28;20049;-68
2023/06/20 08:28:23;;;;;;;6.15;3.05;;;29.60;50.10;;;26.77;73.32;95911.66;5009032;28;20030;-68
2023/06/20 08:30:49;;;;;;;5.55;3.35;;;30.30;49.20;;;27.32;69.44;95921.75;4993111;28;20026;-68
2023/06/20 08:33:15;;;;;;;4.13;2.88;;;30.80;46.50;;;27.83;68.32;95915.31;4991460;28;20214;-68
2023/06/20 08:35:41;;;;;;;4.88;2.95;;;31.40;45.60;;;28.31;66.11;95915.66;4976000;28;20044;-68
2023/06/20 08:38:06;;;;;;;3.78;2.45;;;31.70;44.60;;;28.79;63.13;95898.78;4974317;28;20080;-68
2023/06/20 08:40:33;;;;;;;5.22;2.72;;;32.00;42.20;;;29.18;62.17;95884.50;4993062;28;20029;-68
2023/06/20 08:42:59;;;;;;;4.40;2.50;;;32.30;43.70;;;29.59;60.71;95884.19;4989597;28;20454;-68
2023/06/20 08:45:27;;;;;;;3.10;2.50;;;32.90;42.30;;;29.94;58.50;95887.75;5008045;28;20045;-68
2023/06/20 08:47:58;;;;;;;4.32;2.40;;;33.10;39.80;;;30.22;57.21;95884.78;5009694;28;20038;-69
2023/06/20 08:50:25;;;;;;;5.60;2.40;;;33.30;40.90;;;30.62;56.81;95885.41;4976821;28;20055;-68
2023/06/20 08:52:53;;;;;;;3.53;2.50;;;33.70;40.40;;;30.92;54.81;95876.22;4992581;28;20524;-68
2023/06/20 08:55:20;;;;;;;4.25;2.40;;;33.80;39.80;;;31.19;53.49;95871.50;5007034;28;20038;-69
2023/06/20 08:57:46;;;;;;;4.15;2.42;;;34.10;39.70;;;31.48;52.26;95868.84;4975446;28;20030;-69
2023/06/20 09:00:16;;;;;;;4.95;2.20;;;34.30;37.90;;;31.69;49.20;95856.06;4974310;28;20037;-69
2023/06/20 09:02:42;;;;;;;3.63;2.28;;;34.50;38.40;;;31.90;50.82;95874.34;4976422;28;20042;-69
2023/06/20 09:05:08;;;;;;;3.95;2.60;;;34.90;36.90;;;32.13;49.96;95870.16;5009277;28;20030;-68
2023/06/20 09:07:38;;;;;;;4.88;2.25;;;35.10;37.20;;;32.39;47.29;95856.38;4976693;28;20445;-68
2023/06/20 09:10:05;;;;;;;4.00;2.38;;;35.40;36.90;;;32.55;48.28;95865.50;5004806;28;20073;-68
2023/06/20 09:12:53;;;;;;;4.65;2.30;;;35.30;35.60;;;32.60;43.14;95840.00;4993065;28;20026;-68
2023/06/20 09:15:24;;;;;;;5.65;1.98;;;35.20;35.10;;;32.67;46.37;95862.03;5006272;28;20122;-69
2023/06/20 09:17:54;;;;;;;5.32;2.33;;;35.40;35.50;;;32.76;45.31;95846.38;4971475;28;20057;-69
2023/06/20 09:20:20;;;;;;;5.07;2.10;;;35.60;34.90;;;32.86;45.03;95837.81;4990295;28;20027;-69
2023/06/20 09:22:45;;;;;;;4.55;2.20;;;35.70;34.60;;;33.02;45.07;95828.97;4992386;28;20045;-68
2023/06/20 09:25:12;;;;;;;5.82;2.47;;;36.00;34.80;;;33.20;44.83;95830.34;4989739;28;20052;-68
2023/06/20 09:27:41;;;;;;;4.25;2.30;;;36.20;34.80;;;33.41;44.45;95828.31;4960652;28;20018;-69
2023/06/20 09:30:07;;;;;;;3.95;2.20;;;36.50;35.70;;;33.61;44.02;95820.34;4989430;28;20058;-68
2023/06/20 09:32:39;;;;;;;3.47;2.20;;;36.60;34.20;;;33.66;39.96;95798.28;5009446;28;20157;-68
2023/06/20 09:35:09;;;;;;;3.25;1.88;;;36.50;32.40;;;33.72;42.85;95821.47;4990929;28;20034;-69
2023/06/20 09:37:47;;;;;;;4.38;2.08;;;36.70;34.10;;;33.86;40.77;95794.63;5008794;28;20026;-69
2023/06/20 09:40:18;;;;;;;4.97;2.20;;;36.90;33.50;;;34.04;40.34;95798.69;4989333;28;20034;-68
2023/06/20 09:42:45;;;;;;;3.22;2.00;;;37.30;32.70;;;34.20;41.45;95806.13;4976268;28;20163;-70
2023/06/20 09:45:15;;;;;;;5.75;2.20;;;37.50;32.00;;;34.33;39.25;95785.81;5005626;28;20042;-68
2023/06/20 09:47:43;;;;;;;2.80;2.22;;;37.50;31.80;;;34.50;40.73;95804.63;4993283;28;20548;-68
2023/06/20 09:50:13;;;;;;;2.83;1.92;;;37.60;31.90;;;34.65;39.17;95783.97;4989279;28;20034;-68
2023/06/20 09:52:49;;;;;;;4.05;2.30;;;37.60;31.50;;;34.81;38.76;95775.75;5008457;28;20563;-68
2023/06/20 09:55:15;;;;;;;6.35;2.10;;;37.80;32.50;;;34.95;40.07;95787.06;4988633;28;20570;-69
2023/06/20 09:57:53;;;;;;;3.10;1.83;;;38.30;31.40;;;35.16;36.40;95752.06;4992534;28;20045;-70
2023/06/20 10:00:19;;;;;;;3.88;2.25;;;38.60;29.70;;;35.33;38.61;95780.16;4976231;28;20121;-69
2023/06/20 10:02:46;;;;;;;3.60;1.98;;;38.90;29.60;;;35.43;37.49;95776.91;4956932;28;20398;-68
2023/06/20 10:05:13;;;;;;;3.63;2.05;;;38.90;30.00;;;35.67;37.35;95770.38;4991419;28;20034;-68
2023/06/20 10:07:41;;;;;;;4.40;1.88;;;39.40;29.00;;;35.94;38.44;95776.84;4979080;28;20038;-69
2023/06/20 10:10:08;;;;;;;5.20;1.67;;;40.00;29.90;;;36.18;36.36;95755.44;4995294;28;20390;-69
2023/06/20 10:12:33;;;;;;;3.72;1.42;;;40.00;25.90;;;36.56;34.58;95750.28;5013537;28;20453;-68
2023/06/20 10:15:00;;;;;;;2.15;1.40;;;40.60;25.40;;;36.96;34.76;95750.59;4976232;28;20084;-68
2023/06/20 10:17:31;;;;;;;3.05;1.80;;;41.10;26.40;;;37.37;32.42;95734.41;4994569;28;20088;-69